aviador You're here:

KMSS Decoded Metar

MASSENA in NY, USA
Report Time2017-09-26 11:53:00
UTC Time2017-09-26 12:37:05
Flight Rules vfr VFR
WindCalm
Visibility9999 m
Phenomena:N/A
Clouds:N/A
CeilingNone
Temp18°C (ISA +3)
Dew Point18°C (100% RH)
QNH1017 hPa
Density Alt758 ft
Elevation217 ft
Report Wrong Elevation
Raw Report
KMSS 261153Z AUTO 00000KT 9SM CLR 18/18 A3002 RMK AO2 SLP166
T01830178 10183 20156 51001=

Extra information for KMSS:More info

Metar Taf Metar & Taf Last 4 Metars F.Rules Stats Wind Profile Meteogram Temp Stats Airport Information Weather charts Add Link Nearby VenuesMetar ALERT Operation Metar Decoded Social comments

AIRNAV info for KMSS